Time;durP1;ratioP1;P1;durP2;ratioP2;P2;SDS_P1;SDS_P2;PMS_P1;PMS_P2;Temp;Humidity;BMP_temperature;BMP_pressure;BME280_temperature;BME280_humidity;BME280_pressure;Samples;Min_cycle;Max_cycle;Signal;HPM_P1;HPM_P2
2024/01/14 00:01:41;;;;;;;3.47;2.60;;;;;;;-0.30;62.44;95359.06;5134891;27;20533;-55
2024/01/14 00:04:11;;;;;;;1.67;1.03;;;;;;;-0.47;62.32;95334.44;5134257;27;20491;-55
2024/01/14 00:06:40;;;;;;;1.13;0.70;;;;;;;-0.17;62.19;95348.63;5134874;27;20498;-56
2024/01/14 00:09:09;;;;;;;3.67;2.63;;;;;;;-0.72;63.62;95342.84;5134915;27;20435;-55
2024/01/14 00:11:37;;;;;;;2.27;2.07;;;;;;;-0.39;63.17;95361.09;5132482;27;20521;-56
2024/01/14 00:14:06;;;;;;;2.63;2.40;;;;;;;-0.27;62.51;95354.25;5134094;27;20435;-56
2024/01/14 00:16:35;;;;;;;1.10;1.10;;;;;;;-0.21;62.32;95356.06;5134506;27;20434;-56
2024/01/14 00:19:05;;;;;;;1.93;1.53;;;;;;;-0.23;62.40;95360.66;5134999;27;20782;-55
2024/01/14 00:21:35;;;;;;;3.03;2.83;;;;;;;-0.46;62.42;95336.84;5133557;27;20938;-55
2024/01/14 00:24:04;;;;;;;2.63;1.13;;;;;;;-0.56;61.89;95336.47;5133729;27;20477;-55
2024/01/14 00:26:33;;;;;;;1.17;1.17;;;;;;;-0.29;61.91;95376.31;5107513;27;20899;-55
2024/01/14 00:29:03;;;;;;;3.73;0.97;;;;;;;-0.63;61.73;95317.41;5134204;27;20980;-55
2024/01/14 00:31:32;;;;;;;15.23;2.00;;;;;;;-0.36;61.14;95345.06;5133838;27;20435;-55
2024/01/14 00:34:01;;;;;;;1.60;1.33;;;;;;;-0.42;61.17;95327.63;5133066;27;20525;-56
2024/01/14 00:36:30;;;;;;;7.20;2.80;;;;;;;-0.66;61.62;95297.78;5133670;27;20448;-56
2024/01/14 00:39:00;;;;;;;0.40;0.40;;;;;;;-0.30;61.53;95349.44;5133324;27;20513;-56
2024/01/14 00:41:28;;;;;;;1.10;1.03;;;;;;;-0.60;61.68;95304.00;5133901;27;20438;-55
2024/01/14 00:43:57;;;;;;;0.97;0.83;;;;;;;-0.26;61.59;95357.69;5133524;27;20497;-56
2024/01/14 00:46:25;;;;;;;1.00;1.00;;;;;;;-0.87;61.74;95271.19;5133396;27;20990;-55
2024/01/14 00:48:54;;;;;;;0.90;0.90;;;;;;;-0.63;62.27;95361.66;5134096;27;20922;-56
2024/01/14 00:51:24;;;;;;;1.00;1.00;;;;;;;-0.88;62.94;95332.00;5133727;27;20467;-56
2024/01/14 00:53:53;;;;;;;1.60;1.40;;;;;;;-0.51;62.25;95364.47;5132477;27;20477;-56
2024/01/14 00:56:23;;;;;;;1.13;1.03;;;;;;;-0.73;61.75;95322.22;5133205;27;20958;-56
2024/01/14 00:58:51;;;;;;;6.53;0.90;;;;;;;-0.63;62.71;95366.84;5133408;27;20473;-56
2024/01/14 01:01:20;;;;;;;3.00;2.80;;;;;;;-0.80;62.69;95363.84;5120423;27;20443;-56
2024/01/14 01:03:49;;;;;;;1.80;1.67;;;;;;;-0.93;63.00;95365.59;5119074;27;20530;-56
2024/01/14 01:06:17;;;;;;;2.27;1.73;;;;;;;-0.76;62.74;95369.47;5133523;27;20434;-56
2024/01/14 01:08:46;;;;;;;6.37;1.40;;;;;;;-0.71;62.56;95361.88;5133180;27;20434;-56
2024/01/14 01:11:16;;;;;;;1.97;1.27;;;;;;;-0.97;62.66;95325.41;5133250;27;20434;-56
2024/01/14 01:13:46;;;;;;;3.90;3.60;;;;;;;-0.66;62.52;95349.06;5133272;27;20442;-56
2024/01/14 01:16:15;;;;;;;1.43;1.33;;;;;;;-0.74;62.66;95347.47;5132560;27;20503;-56
2024/01/14 01:18:44;;;;;;;1.87;1.73;;;;;;;-0.72;62.40;95334.22;5133012;27;20448;-56
2024/01/14 01:21:19;;;;;;;4.07;2.03;;;;;;;-0.79;62.57;95326.44;5133253;27;20526;-56
2024/01/14 01:23:47;;;;;;;15.40;1.73;;;;;;;-0.73;63.13;95338.63;5133264;27;20484;-56
2024/01/14 01:26:16;;;;;;;1.17;0.63;;;;;;;-1.26;62.81;95237.34;5132094;27;20429;-57
2024/01/14 01:28:46;;;;;;;1.43;1.33;;;;;;;-0.76;63.02;95330.44;5132733;27;20466;-56
2024/01/14 01:31:15;;;;;;;4.53;3.03;;;;;;;-1.56;63.04;95201.28;5132496;27;20438;-57
2024/01/14 01:33:59;;;;;;;1.07;1.03;;;;;;;-0.80;62.87;95327.41;5132699;27;20438;-56
2024/01/14 01:36:28;;;;;;;1.03;0.90;;;;;;;-1.17;63.37;95264.75;5132763;27;20530;-57
2024/01/14 01:38:56;;;;;;;1.10;0.83;;;;;;;-0.95;63.63;95318.19;5132811;27;20438;-55
2024/01/14 01:41:26;;;;;;;1.53;0.90;;;;;;;-0.98;63.95;95331.59;5132572;27;20495;-56
2024/01/14 01:43:56;;;;;;;1.27;1.27;;;;;;;-1.32;63.43;95246.72;5131971;27;20529;-55
2024/01/14 01:46:25;;;;;;;1.40;1.23;;;;;;;-1.10;63.78;95297.56;5132777;27;20434;-56
2024/01/14 01:48:54;;;;;;;1.50;1.10;;;;;;;-1.47;64.04;95249.47;5132441;27;20502;-56
2024/01/14 01:51:23;;;;;;;1.67;1.57;;;;;;;-1.11;64.25;95308.19;5132762;27;20517;-56
2024/01/14 01:53:52;;;;;;;1.50;1.17;;;;;;;-1.04;63.84;95288.97;5132039;27;20462;-56
2024/01/14 01:56:22;;;;;;;1.83;1.83;;;;;;;-1.22;64.64;95300.94;5132246;27;20538;-56
2024/01/14 01:58:51;;;;;;;12.53;1.47;;;;;;;-1.11;64.37;95301.16;5132950;27;20503;-56
2024/01/14 02:01:22;;;;;;;3.50;2.70;;;;;;;-0.96;64.20;95303.59;5132651;27;20494;-56
2024/01/14 02:03:53;;;;;;;2.60;1.30;;;;;;;-1.08;63.81;95294.75;5132957;27;20441;-56
2024/01/14 02:06:24;;;;;;;2.30;2.13;;;;;;;-1.02;63.70;95296.56;5132177;27;20945;-56
2024/01/14 02:08:52;;;;;;;0.97;0.77;;;;;;;-1.04;63.69;95291.59;5132443;27;20480;-57
2024/01/14 02:11:21;;;;;;;2.17;2.07;;;;;;;-1.48;63.21;95221.91;5131877;27;20438;-57
2024/01/14 02:13:50;;;;;;;0.30;0.30;;;;;;;-0.91;63.32;95288.97;5132415;27;20438;-56
2024/01/14 02:16:22;;;;;;;0.73;0.57;;;;;;;-0.91;62.79;95290.81;5131385;28;20449;-56
2024/01/14 02:18:51;;;;;;;1.23;0.63;;;;;;;-0.95;62.98;95289.56;5132294;27;20446;-56
2024/01/14 02:21:23;;;;;;;1.23;1.10;;;;;;;-0.99;63.44;95284.00;5131923;28;20435;-56
2024/01/14 02:24:00;;;;;;;4.83;0.73;;;;;;;-1.30;63.59;95237.75;5132317;28;21014;-56
2024/01/14 02:26:31;;;;;;;0.97;0.80;;;;;;;-0.92;63.44;95271.78;5131846;27;20425;-57
2024/01/14 02:29:03;;;;;;;3.83;0.90;;;;;;;-0.90;63.27;95271.56;5131476;27;20476;-56
2024/01/14 02:31:32;;;;;;;1.80;0.40;;;;;;;-1.41;63.11;95233.09;5131700;28;20446;-56
2024/01/14 02:34:01;;;;;;;0.97;0.97;;;;;;;-1.05;63.25;95273.56;5131231;28;20438;-57
2024/01/14 02:36:30;;;;;;;0.93;0.90;;;;;;;-1.13;63.49;95284.94;5132438;27;20798;-56
2024/01/14 02:38:59;;;;;;;2.60;1.03;;;;;;;-1.10;63.68;95278.56;5131799;28;20961;-56
2024/01/14 02:41:28;;;;;;;1.43;1.07;;;;;;;-1.59;63.80;95217.28;5131593;28;20950;-56
2024/01/14 02:43:58;;;;;;;1.63;1.63;;;;;;;-1.83;63.56;95175.47;5130943;27;20437;-56
2024/01/14 02:46:27;;;;;;;1.57;1.47;;;;;;;-1.57;63.27;95201.50;5133717;27;20442;-60
2024/01/14 02:48:57;;;;;;;1.47;1.37;;;;;;;-1.15;63.38;95271.34;5136116;27;20470;-56
2024/01/14 02:51:26;;;;;;;1.37;0.50;;;;;;;-1.42;63.96;95244.50;5135947;27;20434;-57
2024/01/14 02:53:55;;;;;;;0.70;0.70;;;;;;;-1.25;63.76;95267.53;5135159;27;20552;-56
2024/01/14 02:56:23;;;;;;;11.50;1.60;;;;;;;-1.61;63.81;95221.06;5129250;27;20522;-56
2024/01/14 02:58:52;;;;;;;1.83;0.83;;;;;;;-1.22;64.03;95264.53;5136053;27;20945;-56
2024/01/14 03:01:22;;;;;;;0.90;0.90;;;;;;;-1.42;64.36;95273.09;5135748;27;20506;-56
2024/01/14 03:03:51;;;;;;;1.77;1.20;;;;;;;-1.50;64.41;95268.09;5135704;27;20434;-56
2024/01/14 03:06:20;;;;;;;1.63;1.53;;;;;;;-1.83;64.14;95232.59;5134035;27;20434;-57
2024/01/14 03:08:49;;;;;;;1.47;1.37;;;;;;;-1.80;64.77;95243.41;5134998;27;20476;-57
2024/01/14 03:11:18;;;;;;;1.13;1.13;;;;;;;-1.68;65.33;95274.81;5134894;27;20445;-56
2024/01/14 03:13:46;;;;;;;1.37;1.23;;;;;;;-1.63;64.69;95264.63;5135167;27;20438;-56
2024/01/14 03:16:15;;;;;;;1.50;0.83;;;;;;;-1.56;64.67;95281.03;5134852;27;20796;-56
2024/01/14 03:18:45;;;;;;;1.93;1.73;;;;;;;-1.61;64.63;95279.03;5124672;27;20522;-56
2024/01/14 03:21:18;;;;;;;0.97;0.90;;;;;;;-1.63;64.66;95270.63;5132053;27;20517;-56
2024/01/14 03:23:48;;;;;;;1.40;1.10;;;;;;;-1.83;65.24;95274.97;5135415;27;20517;-55
2024/01/14 03:26:17;;;;;;;0.83;0.83;;;;;;;-2.03;65.26;95245.50;5134602;27;20430;-55
2024/01/14 03:28:46;;;;;;;0.40;0.40;;;;;;;-1.84;65.51;95290.72;5134810;27;20838;-56
2024/01/14 03:31:15;;;;;;;0.50;0.50;;;;;;;-1.76;65.99;95286.19;5135078;27;20430;-56
2024/01/14 03:33:46;;;;;;;2.40;1.13;;;;;;;-1.74;65.67;95278.19;5135275;27;20441;-56
2024/01/14 03:36:15;;;;;;;8.97;1.37;;;;;;;-2.39;65.28;95187.81;5108751;27;20430;-56
2024/01/14 03:38:44;;;;;;;9.23;0.80;;;;;;;-2.39;65.04;95188.63;5135286;27;20442;-56
2024/01/14 03:41:13;;;;;;;0.70;0.70;;;;;;;-1.84;65.49;95278.53;5135316;27;20446;-56
2024/01/14 03:43:42;;;;;;;1.20;0.80;;;;;;;-1.91;66.25;95280.31;5134465;27;20550;-57
2024/01/14 03:46:11;;;;;;;0.63;0.43;;;;;;;-1.98;66.01;95271.69;5134710;27;20466;-58
2024/01/14 03:48:39;;;;;;;0.93;0.90;;;;;;;-2.07;65.77;95267.66;5134523;27;20474;-55
2024/01/14 03:51:09;;;;;;;2.50;1.03;;;;;;;-1.92;65.16;95282.09;5135198;27;20441;-56
2024/01/14 03:53:38;;;;;;;0.87;0.87;;;;;;;-1.81;65.39;95272.97;5134496;27;20527;-57
2024/01/14 03:56:07;;;;;;;0.37;0.37;;;;;;;-1.92;65.28;95283.13;5135265;27;20791;-57
2024/01/14 03:58:39;;;;;;;1.27;0.80;;;;;;;-1.94;65.72;95278.91;5133233;27;20544;-56
2024/01/14 04:01:11;;;;;;;1.30;0.97;;;;;;;-1.96;65.76;95272.31;5135182;27;20427;-57
2024/01/14 04:03:40;;;;;;;0.77;0.77;;;;;;;-1.88;65.84;95272.16;5134345;27;20442;-55
2024/01/14 04:06:10;;;;;;;3.03;1.27;;;;;;;-1.86;66.04;95272.75;5134697;27;20430;-55
2024/01/14 04:08:39;;;;;;;1.53;1.43;;;;;;;-2.00;66.00;95274.47;5108418;27;20434;-55
2024/01/14 04:11:08;;;;;;;1.97;1.53;;;;;;;-2.59;66.32;95203.31;5134268;27;20438;-56
2024/01/14 04:13:37;;;;;;;1.57;1.27;;;;;;;-1.92;65.87;95286.50;5134250;27;20525;-55
2024/01/14 04:16:07;;;;;;;0.40;0.40;;;;;;;-1.96;65.98;95285.28;5134334;27;20439;-56
2024/01/14 04:18:36;;;;;;;0.60;0.60;;;;;;;-1.94;65.96;95289.28;5133995;27;20988;-57
2024/01/14 04:21:05;;;;;;;1.10;0.77;;;;;;;-2.01;66.05;95288.47;5134285;27;20490;-57
2024/01/14 04:23:35;;;;;;;3.57;2.30;;;;;;;-2.07;66.04;95283.22;5134267;27;21128;-57
2024/01/14 04:26:07;;;;;;;1.80;1.43;;;;;;;-2.01;65.79;95287.66;5134315;27;20445;-57
2024/01/14 04:28:37;;;;;;;3.83;1.40;;;;;;;-2.11;65.48;95253.47;5134105;27;20474;-56
2024/01/14 04:31:06;;;;;;;0.90;0.80;;;;;;;-2.55;65.72;95207.09;5134008;27;20431;-55
2024/01/14 04:33:34;;;;;;;1.97;1.30;;;;;;;-2.00;65.40;95284.88;5133742;27;20438;-56
2024/01/14 04:36:04;;;;;;;2.30;0.63;;;;;;;-2.11;65.72;95293.22;5133395;27;20435;-55
2024/01/14 04:38:33;;;;;;;2.67;1.27;;;;;;;-2.06;65.45;95288.25;5133814;27;20990;-56
2024/01/14 04:41:03;;;;;;;1.27;1.27;;;;;;;-2.41;65.71;95234.75;5106929;27;20450;-56
2024/01/14 04:43:32;;;;;;;0.60;0.60;;;;;;;-2.13;65.61;95289.19;5120138;27;20915;-55
2024/01/14 04:46:00;;;;;;;0.83;0.83;;;;;;;-2.18;65.78;95289.78;5134292;27;20442;-56
2024/01/14 04:48:33;;;;;;;1.33;1.23;;;;;;;-2.08;65.64;95297.22;5133417;27;20442;-55
2024/01/14 04:51:02;;;;;;;0.70;0.70;;;;;;;-2.00;65.97;95303.03;5134325;27;20505;-57
2024/01/14 04:53:31;;;;;;;3.50;3.30;;;;;;;-2.17;65.56;95282.78;5132552;27;20470;-56
2024/01/14 04:56:00;;;;;;;4.43;1.97;;;;;;;-2.06;65.21;95306.41;5133563;27;21071;-56
2024/01/14 04:58:30;;;;;;;0.90;0.90;;;;;;;-1.99;64.98;95314.22;5133206;27;20435;-56
2024/01/14 05:00:59;;;;;;;0.53;0.53;;;;;;;-2.11;65.53;95303.59;5133452;27;20434;-56
2024/01/14 05:03:27;;;;;;;2.30;1.60;;;;;;;-2.02;65.12;95318.00;5132773;27;20442;-56
2024/01/14 05:05:56;;;;;;;3.07;1.20;;;;;;;-2.04;65.53;95314.00;5133429;27;20495;-56
2024/01/14 05:08:25;;;;;;;0.47;0.40;;;;;;;-2.04;65.46;95311.41;5132047;27;20517;-56
2024/01/14 05:10:53;;;;;;;0.87;0.67;;;;;;;-2.01;65.48;95314.44;5133588;27;20468;-55
2024/01/14 05:13:22;;;;;;;1.37;1.27;;;;;;;-1.68;64.81;95299.00;5133401;27;20431;-56
2024/01/14 05:15:52;;;;;;;5.13;0.87;;;;;;;-1.34;64.48;95304.09;5133182;27;20441;-56
2024/01/14 05:18:21;;;;;;;1.17;0.67;;;;;;;-1.40;64.01;95304.91;5127459;27;20445;-55
2024/01/14 05:20:50;;;;;;;3.43;2.17;;;;;;;-1.41;63.74;95298.09;5133170;27;20938;-55
2024/01/14 05:23:19;;;;;;;3.10;1.83;;;;;;;-1.24;63.35;95305.53;5132699;27;20831;-55
2024/01/14 05:25:48;;;;;;;1.23;1.10;;;;;;;-1.08;63.29;95307.75;5133356;27;20491;-56
2024/01/14 05:28:16;;;;;;;0.73;0.73;;;;;;;-1.26;62.83;95294.53;5133500;27;20438;-56
2024/01/14 05:30:47;;;;;;;1.27;1.17;;;;;;;-1.41;63.33;95308.50;5132903;27;20876;-56
2024/01/14 05:33:17;;;;;;;10.13;2.03;;;;;;;-1.49;64.28;95303.47;5132944;27;20949;-56
2024/01/14 05:35:45;;;;;;;0.97;0.93;;;;;;;-1.22;63.09;95304.34;5132795;27;20521;-56
2024/01/14 05:38:14;;;;;;;7.23;1.07;;;;;;;-1.15;62.63;95299.97;5133113;27;20625;-56
2024/01/14 05:40:43;;;;;;;1.63;1.53;;;;;;;-1.23;62.38;95296.72;5132539;27;20474;-56
2024/01/14 05:43:12;;;;;;;3.13;1.30;;;;;;;-1.40;62.14;95286.72;5133439;27;20439;-57
2024/01/14 05:45:41;;;;;;;2.40;1.60;;;;;;;-1.65;63.07;95277.84;5133126;27;20867;-56
2024/01/14 05:48:09;;;;;;;4.33;1.83;;;;;;;-1.47;62.16;95305.88;5132446;27;20431;-56
2024/01/14 05:50:40;;;;;;;1.97;1.87;;;;;;;-2.22;62.12;95210.66;5132404;27;20431;-56
2024/01/14 05:53:08;;;;;;;1.60;1.60;;;;;;;-1.77;62.39;95309.75;5132479;27;20527;-56
2024/01/14 05:55:37;;;;;;;1.83;1.30;;;;;;;-1.65;62.41;95311.63;5132431;27;20445;-56
2024/01/14 05:58:06;;;;;;;1.43;1.43;;;;;;;-1.71;62.06;95319.38;5132619;27;20526;-56
2024/01/14 06:00:35;;;;;;;0.60;0.40;;;;;;;-1.44;61.56;95316.66;5106263;27;20478;-56
2024/01/14 06:03:04;;;;;;;2.77;2.60;;;;;;;-1.93;61.16;95225.19;5131929;27;20964;-56
2024/01/14 06:05:33;;;;;;;1.43;1.43;;;;;;;-1.26;61.11;95318.72;5131666;27;20476;-56
2024/01/14 06:08:03;;;;;;;0.97;0.73;;;;;;;-1.15;60.98;95318.16;5131938;27;20441;-56
2024/01/14 06:10:32;;;;;;;0.43;0.43;;;;;;;-0.99;60.78;95304.00;5131920;27;20792;-54
2024/01/14 06:13:01;;;;;;;1.67;1.57;;;;;;;-0.90;60.86;95302.78;5132023;27;20430;-55
2024/01/14 06:15:29;;;;;;;1.03;1.03;;;;;;;-0.97;61.11;95312.38;5132198;27;20509;-55
2024/01/14 06:17:58;;;;;;;3.40;2.00;;;;;;;-0.95;61.28;95299.97;5131601;28;20979;-55
2024/01/14 06:20:27;;;;;;;1.40;1.17;;;;;;;-1.22;61.85;95300.94;5130995;27;20574;-55
2024/01/14 06:22:55;;;;;;;4.53;2.73;;;;;;;-1.62;62.11;95300.81;5131512;28;20477;-55
2024/01/14 06:25:25;;;;;;;3.20;3.00;;;;;;;-2.13;63.45;95294.41;5132220;28;20442;-55
2024/01/14 06:27:54;;;;;;;8.23;1.47;;;;;;;-2.10;64.68;95318.16;5131926;28;20488;-55
2024/01/14 06:30:23;;;;;;;2.30;2.10;;;;;;;-7.19;64.19;94541.25;5132063;27;20430;-55
2024/01/14 06:32:55;;;;;;;1.40;1.30;;;;;;;-1.25;63.31;95276.13;5132327;28;20500;-55
2024/01/14 06:35:24;;;;;;;1.40;1.30;;;;;;;-0.69;62.15;95307.81;5132280;28;20439;-55
2024/01/14 06:37:53;;;;;;;12.33;3.00;;;;;;;-0.45;61.63;95315.00;5105423;28;20438;-55
2024/01/14 06:40:21;;;;;;;1.30;1.27;;;;;;;-0.21;61.86;95311.81;5132049;28;20500;-55
2024/01/14 06:43:04;;;;;;;2.60;2.40;;;;;;;0.08;60.35;95307.13;5131827;27;20438;-55
2024/01/14 06:45:32;;;;;;;2.30;2.20;;;;;;;0.12;60.03;95309.13;5131294;27;20441;-54
2024/01/14 06:48:01;;;;;;;1.67;1.53;;;;;;;0.49;59.33;95318.00;5132005;28;20521;-54
2024/01/14 06:50:30;;;;;;;2.37;2.27;;;;;;;1.02;57.46;95313.34;5131370;28;20437;-55
2024/01/14 06:52:59;;;;;;;3.30;3.00;;;;;;;1.45;57.19;95313.44;5131424;27;20458;-55
2024/01/14 06:55:27;;;;;;;2.97;2.60;;;;;;;1.81;55.81;95310.94;5131443;27;20491;-56
2024/01/14 06:57:56;;;;;;;3.43;3.13;;;;;;;1.77;55.29;95323.63;5131901;28;20439;-55
2024/01/14 07:00:26;;;;;;;7.63;5.33;;;;;;;0.57;55.34;95176.97;5131457;27;20527;-56
2024/01/14 07:02:55;;;;;;;15.40;6.67;;;;;;;1.23;55.62;95310.41;5131850;28;20819;-55
2024/01/14 07:05:23;;;;;;;12.30;5.60;;;;;;;1.58;55.08;95306.31;5104501;28;20461;-56
2024/01/14 07:07:52;;;;;;;3.40;3.20;;;;;;;2.02;55.01;95299.28;5131236;28;20434;-54
2024/01/14 07:10:21;;;;;;;3.80;3.20;;;;;;;2.24;52.78;95290.81;5105523;28;20470;-54
2024/01/14 07:12:49;;;;;;;5.87;3.77;;;;;;;2.40;52.88;95305.88;5131253;28;20452;-55
2024/01/14 07:15:18;;;;;;;6.80;3.80;;;;;;;2.83;51.67;95297.13;5131351;28;20467;-55
2024/01/14 07:17:48;;;;;;;1.87;1.77;;;;;;;2.76;52.45;95246.72;5130439;28;20946;-56
2024/01/14 07:20:26;;;;;;;1.60;1.50;;;;;;;3.14;51.68;95302.13;5131185;28;20556;-54
2024/01/14 07:22:55;;;;;;;2.53;1.60;;;;;;;3.50;52.00;95296.75;5131656;28;20786;-55
2024/01/14 07:25:44;;;;;;;6.77;3.07;;;;;;;3.61;51.79;95301.22;5130979;28;20834;-56
2024/01/14 07:28:13;;;;;;;8.53;4.47;;;;;;;3.70;51.04;95293.81;5131930;27;20427;-56
2024/01/14 07:30:41;;;;;;;7.33;5.27;;;;;;;3.93;50.74;95293.03;5131737;27;20446;-56
2024/01/14 07:33:11;;;;;;;7.13;3.43;;;;;;;3.94;49.54;95235.13;5131568;27;20434;-55
2024/01/14 07:35:40;;;;;;;4.07;2.10;;;;;;;4.43;49.51;95292.28;5132986;27;20442;-55
2024/01/14 07:38:09;;;;;;;2.33;2.13;;;;;;;5.39;47.93;95290.69;5133205;27;20518;-55
2024/01/14 07:40:37;;;;;;;2.53;2.43;;;;;;;5.35;47.62;95289.56;5132737;27;20558;-55
2024/01/14 07:43:07;;;;;;;2.73;1.70;;;;;;;5.36;47.95;95296.44;5132715;27;21109;-55
2024/01/14 07:45:36;;;;;;;3.23;2.80;;;;;;;5.74;46.46;95283.38;5132409;27;20439;-55
2024/01/14 07:48:05;;;;;;;2.30;2.17;;;;;;;5.55;46.99;95280.19;5133763;27;20804;-55
2024/01/14 07:50:35;;;;;;;4.07;3.23;;;;;;;5.68;47.38;95284.34;5134176;27;20434;-56
2024/01/14 07:53:04;;;;;;;8.40;2.83;;;;;;;6.03;46.18;95274.38;5134658;27;20462;-56
2024/01/14 07:55:33;;;;;;;2.70;2.50;;;;;;;6.52;44.91;95274.50;5135004;27;20438;-57
2024/01/14 07:58:02;;;;;;;13.90;6.40;;;;;;;6.62;44.20;95274.63;5134757;27;20445;-56
2024/01/14 08:00:30;;;;;;;5.23;2.43;;;;;;;6.93;44.37;95269.44;5135050;27;20470;-56
2024/01/14 08:02:59;;;;;;;2.43;1.37;;;;;;;7.11;44.33;95270.19;5134350;27;20926;-57
2024/01/14 08:05:30;;;;;;;3.07;2.37;;;;;;;7.10;43.35;95253.56;5135032;27;20438;-56
2024/01/14 08:08:01;;;;;;;3.47;2.97;;;;;;;6.73;43.56;95255.28;5134414;27;20431;-55
2024/01/14 08:10:29;;;;;;;2.80;2.60;;;;;;;6.33;44.47;95218.72;5134814;27;20430;-56
2024/01/14 08:12:58;;;;;;;3.50;2.30;;;;;;;7.00;43.06;95259.53;5134468;27;20442;-55
2024/01/14 08:15:27;;;;;;;1.30;1.17;;;;;;;7.15;42.78;95218.56;5134770;27;20845;-55
2024/01/14 08:17:56;;;;;;;4.37;1.73;;;;;;;7.14;42.64;95253.84;5133930;27;20491;-55
2024/01/14 08:20:25;;;;;;;18.80;3.13;;;;;;;7.10;43.21;95255.41;5134394;27;20470;-54
2024/01/14 08:22:54;;;;;;;1.33;0.63;;;;;;;7.38;43.28;95250.66;5132899;27;20487;-54
2024/01/14 08:25:24;;;;;;;1.30;1.20;;;;;;;7.41;42.34;95257.28;5134621;27;20485;-54
2024/01/14 08:27:53;;;;;;;6.33;1.70;;;;;;;8.03;42.15;95231.09;5133804;27;20426;-55
2024/01/14 08:30:22;;;;;;;2.03;1.77;;;;;;;7.97;41.73;95254.00;5134325;27;20470;-53
2024/01/14 08:32:51;;;;;;;2.10;1.90;;;;;;;8.34;41.32;95251.38;5134014;27;20427;-54
2024/01/14 08:35:19;;;;;;;1.97;1.87;;;;;;;7.88;41.46;95241.53;5134621;27;20430;-54
2024/01/14 08:37:48;;;;;;;20.57;2.17;;;;;;;8.13;41.06;95228.50;5134504;27;20881;-55
2024/01/14 08:40:17;;;;;;;2.00;0.97;;;;;;;9.16;40.84;95235.53;5134220;27;20855;-56
2024/01/14 08:42:48;;;;;;;1.23;1.00;;;;;;;9.32;40.01;95231.06;5134149;27;20439;-55
2024/01/14 08:45:17;;;;;;;4.33;3.77;;;;;;;8.77;41.08;95235.19;5133641;27;20557;-56
2024/01/14 08:47:45;;;;;;;2.87;2.30;;;;;;;9.17;40.74;95231.03;5133947;27;20422;-57
2024/01/14 08:50:14;;;;;;;2.73;2.20;;;;;;;9.07;40.81;95215.97;5133680;27;20864;-57
2024/01/14 08:52:44;;;;;;;1.83;1.73;;;;;;;10.48;38.18;95234.41;5133922;27;20515;-58
2024/01/14 08:55:13;;;;;;;10.20;1.60;;;;;;;10.39;38.77;95229.94;5133375;27;20434;-58
2024/01/14 08:57:42;;;;;;;1.83;1.73;;;;;;;10.62;37.13;95214.22;5133432;27;20435;-58
2024/01/14 09:00:13;;;;;;;7.17;2.67;;;;;;;11.24;37.34;95216.28;5133644;27;20426;-58
2024/01/14 09:02:42;;;;;;;2.47;1.37;;;;;;;10.79;36.89;95213.88;5133636;27;20473;-58
2024/01/14 09:05:11;;;;;;;0.57;0.57;;;;;;;11.43;36.66;95189.88;5132321;27;20444;-60
2024/01/14 09:07:39;;;;;;;1.03;0.80;;;;;;;12.62;35.03;95188.97;5133626;27;20440;-60
2024/01/14 09:10:09;;;;;;;1.70;1.63;;;;;;;12.18;34.04;95183.13;5133197;27;20434;-60
2024/01/14 09:12:37;;;;;;;0.80;0.80;;;;;;;11.69;35.50;95180.66;5132944;27;20438;-59
2024/01/14 09:15:07;;;;;;;1.80;1.67;;;;;;;11.73;36.57;95199.50;5107342;27;20430;-59
2024/01/14 09:17:42;;;;;;;7.47;1.00;;;;;;;12.61;35.19;95191.94;5132909;27;20441;-61
2024/01/14 09:20:11;;;;;;;1.80;1.30;;;;;;;12.54;35.21;95189.63;5133383;27;20434;-58
2024/01/14 09:22:40;;;;;;;2.17;1.97;;;;;;;12.45;34.59;95186.00;5132890;27;20470;-58
2024/01/14 09:25:09;;;;;;;17.10;3.00;;;;;;;12.60;34.20;95183.16;5133538;27;20453;-59
2024/01/14 09:27:40;;;;;;;12.10;2.57;;;;;;;12.44;34.28;95176.47;5130057;27;20494;-59
2024/01/14 09:30:12;;;;;;;2.00;1.90;;;;;;;12.05;34.00;95173.16;5122537;27;20790;-58
2024/01/14 09:32:42;;;;;;;0.70;0.70;;;;;;;13.12;33.08;95160.16;5133063;27;20514;-58
2024/01/14 09:35:11;;;;;;;1.10;0.93;;;;;;;13.10;32.44;95154.34;5133196;27;20460;-57
2024/01/14 09:37:39;;;;;;;1.03;0.90;;;;;;;13.10;33.49;95135.72;5133112;27;20425;-57
2024/01/14 09:40:09;;;;;;;2.10;1.37;;;;;;;12.16;33.83;95153.38;5132510;27;20434;-58
2024/01/14 09:42:40;;;;;;;1.47;1.37;;;;;;;11.92;34.79;95144.59;5132549;27;20522;-58
2024/01/14 09:45:09;;;;;;;2.00;1.90;;;;;;;12.87;33.92;95141.88;5132957;27;20513;-58
2024/01/14 09:47:39;;;;;;;3.13;1.50;;;;;;;12.85;32.98;95138.72;5106596;27;20434;-57
2024/01/14 09:50:10;;;;;;;3.23;2.93;;;;;;;11.99;33.65;95139.75;5132440;27;20434;-57
2024/01/14 09:52:41;;;;;;;4.50;2.63;;;;;;;11.66;34.84;95138.72;5132563;27;20481;-59
2024/01/14 09:55:11;;;;;;;2.23;0.93;;;;;;;12.56;34.29;95131.63;5131117;27;20435;-58
2024/01/14 09:57:42;;;;;;;1.70;0.90;;;;;;;13.11;33.10;95121.31;5132491;27;20434;-59
2024/01/14 10:00:12;;;;;;;1.77;1.67;;;;;;;13.39;33.30;95123.00;5132433;27;20454;-57
2024/01/14 10:02:40;;;;;;;1.20;1.20;;;;;;;13.36;33.38;95126.25;5132605;27;20473;-59
2024/01/14 10:05:11;;;;;;;1.70;1.60;;;;;;;13.16;32.66;95110.59;5131650;27;20435;-59
2024/01/14 10:07:39;;;;;;;8.93;2.20;;;;;;;13.99;32.42;95110.50;5132333;27;20430;-59
2024/01/14 10:10:09;;;;;;;3.90;2.00;;;;;;;13.13;32.23;95050.75;5132084;27;20463;-59
2024/01/14 10:12:38;;;;;;;1.83;1.73;;;;;;;13.87;32.67;95102.19;5132498;27;20437;-59
2024/01/14 10:15:07;;;;;;;2.33;1.43;;;;;;;14.38;31.71;95100.16;5132348;27;20438;-59
2024/01/14 10:17:36;;;;;;;2.50;2.40;;;;;;;14.73;31.53;95093.28;5132068;27;20509;-59
2024/01/14 10:20:06;;;;;;;6.07;1.53;;;;;;;15.71;29.73;95086.19;5132430;27;20433;-59
2024/01/14 10:22:36;;;;;;;1.93;1.43;;;;;;;15.43;29.44;95060.72;5131778;27;20473;-58
2024/01/14 10:25:05;;;;;;;3.27;3.07;;;;;;;15.38;29.89;95072.28;5131819;28;20438;-58
2024/01/14 10:27:33;;;;;;;2.67;2.57;;;;;;;14.45;30.73;95075.75;5132297;27;20438;-58
2024/01/14 10:30:10;;;;;;;1.70;1.43;;;;;;;14.92;30.74;95048.59;5131515;28;20431;-58
2024/01/14 10:32:41;;;;;;;4.20;2.50;;;;;;;15.23;29.95;95043.28;5132085;28;20430;-57
2024/01/14 10:35:30;;;;;;;2.63;2.43;;;;;;;14.87;30.61;95045.25;5131814;27;20450;-57
2024/01/14 10:38:03;;;;;;;2.23;2.13;;;;;;;14.24;30.76;95045.25;5132209;28;20460;-57
2024/01/14 10:40:32;;;;;;;3.97;3.27;;;;;;;13.06;31.60;94991.00;5131940;28;20814;-57
2024/01/14 10:43:02;;;;;;;3.13;1.63;;;;;;;14.50;30.90;95022.31;5132427;28;20485;-57
2024/01/14 10:45:30;;;;;;;2.87;2.67;;;;;;;14.33;30.22;95022.97;5131540;28;20462;-57
2024/01/14 10:48:06;;;;;;;1.63;1.30;;;;;;;13.64;30.88;95002.75;5132270;28;20499;-57
2024/01/14 10:50:36;;;;;;;7.10;1.90;;;;;;;13.59;30.70;95016.16;5131055;28;20942;-57
2024/01/14 10:53:22;;;;;;;2.33;2.20;;;;;;;12.71;31.35;94941.84;5131394;27;20568;-57
2024/01/14 10:56:00;;;;;;;4.20;1.40;;;;;;;12.86;31.69;94943.47;5132170;28;20469;-57
2024/01/14 10:58:31;;;;;;;3.40;1.07;;;;;;;13.06;32.19;94999.81;5131523;28;20590;-56
2024/01/14 11:01:01;;;;;;;1.00;0.60;;;;;;;13.77;31.66;94990.50;5132345;27;20518;-57
2024/01/14 11:03:31;;;;;;;0.90;0.90;;;;;;;14.39;30.93;94983.66;5132023;28;20474;-56
2024/01/14 11:06:00;;;;;;;2.27;1.70;;;;;;;14.95;29.75;94973.25;5132081;28;20441;-56
2024/01/14 11:08:31;;;;;;;3.33;1.20;;;;;;;15.69;28.91;94982.28;5135485;27;20466;-56
2024/01/14 11:11:01;;;;;;;3.33;0.90;;;;;;;15.78;28.36;94979.66;5135728;27;20578;-57
2024/01/14 11:13:36;;;;;;;2.20;1.00;;;;;;;15.79;28.72;94971.31;5109680;27;20462;-56
2024/01/14 11:16:11;;;;;;;12.17;1.17;;;;;;;15.71;28.67;94973.97;5135409;27;20465;-56
2024/01/14 11:18:46;;;;;;;1.57;1.50;;;;;;;16.00;27.28;94968.88;5135461;27;20484;-57
2024/01/14 11:21:26;;;;;;;0.60;0.60;;;;;;;16.09;27.00;94968.91;5135144;27;20422;-56
2024/01/14 11:24:16;;;;;;;0.67;0.67;;;;;;;16.23;28.92;94959.63;5134955;27;20966;-57
2024/01/14 11:26:45;;;;;;;0.67;0.67;;;;;;;16.46;28.74;94960.28;5134978;27;20446;-56
2024/01/14 11:29:14;;;;;;;0.70;0.63;;;;;;;16.22;29.17;94955.38;5134920;27;20434;-56
2024/01/14 11:32:11;;;;;;;1.67;1.23;;;;;;;15.02;29.81;94960.28;5135911;27;20859;-57
2024/01/14 11:34:59;;;;;;;1.23;1.17;;;;;;;15.40;29.83;94973.97;5108370;27;20434;-57
2024/01/14 11:37:45;;;;;;;1.03;0.93;;;;;;;16.04;29.46;94967.13;5134953;27;20930;-57
2024/01/14 11:40:24;;;;;;;3.83;0.90;;;;;;;15.16;29.47;94962.84;5135434;27;20487;-57
2024/01/14 11:42:57;;;;;;;0.73;0.73;;;;;;;17.27;26.91;94949.66;5111123;27;20473;-57
2024/01/14 11:45:37;;;;;;;0.60;0.60;;;;;;;16.38;25.70;94761.25;5135206;27;20947;-56
2024/01/14 11:48:08;;;;;;;1.13;1.13;;;;;;;16.88;27.93;94954.16;5135388;27;20791;-57